Time;durP1;ratioP1;P1;durP2;ratioP2;P2;SDS_P1;SDS_P2;PMS_P1;PMS_P2;Temp;Humidity;BMP_temperature;BMP_pressure;BME280_temperature;BME280_humidity;BME280_pressure;Samples;Min_cycle;Max_cycle;Signal;HPM_P1;HPM_P2
2022/12/03 00:00:42;;;;;;;24.42;13.35;;;;;;;2.83;77.92;102273.75;5033149;28;20045;-60
2022/12/03 00:03:07;;;;;;;24.60;12.68;;;;;;;2.80;77.76;102274.44;5033087;28;20099;-60
2022/12/03 00:05:32;;;;;;;23.58;12.57;;;;;;;2.83;77.94;102265.94;5015803;28;20025;-61
2022/12/03 00:07:58;;;;;;;24.10;12.77;;;;;;;2.84;78.42;102259.88;5033035;28;20139;-60
2022/12/03 00:10:23;;;;;;;24.05;12.95;;;;;;;2.85;78.00;102264.31;5033239;28;20033;-60
2022/12/03 00:12:49;;;;;;;25.25;13.48;;;;;;;2.86;78.39;102263.50;5033253;28;20455;-60
2022/12/03 00:15:14;;;;;;;24.55;13.00;;;;;;;2.84;77.94;102254.66;5032737;28;20039;-61
2022/12/03 00:17:40;;;;;;;24.83;12.90;;;;;;;2.80;78.20;102257.88;5015550;28;20097;-60
2022/12/03 00:20:07;;;;;;;25.23;13.38;;;;;;;2.86;78.42;102263.50;5033195;28;20476;-61
2022/12/03 00:22:32;;;;;;;23.60;12.52;;;;;;;2.85;78.37;102256.47;5032881;28;20036;-60
2022/12/03 00:24:59;;;;;;;24.60;12.93;;;;;;;2.89;78.52;102255.88;5032868;28;20030;-62
2022/12/03 00:27:24;;;;;;;26.33;12.80;;;;;;;2.91;78.62;102246.41;5014792;28;20048;-60
2022/12/03 00:29:51;;;;;;;26.35;13.50;;;;;;;2.89;78.18;102251.53;5032992;28;20474;-60
2022/12/03 00:32:16;;;;;;;24.33;12.50;;;;;;;2.91;78.82;102251.63;5033126;28;20022;-61
2022/12/03 00:34:42;;;;;;;25.50;13.68;;;;;;;2.94;77.78;102254.44;5032826;28;20080;-61
2022/12/03 00:37:08;;;;;;;25.40;12.68;;;;;;;2.97;77.78;102246.81;5032656;28;20033;-64
2022/12/03 00:39:33;;;;;;;26.48;13.15;;;;;;;2.97;78.67;102242.50;5033013;28;20040;-61
2022/12/03 00:41:59;;;;;;;24.13;12.82;;;;;;;2.96;77.81;102245.03;5032759;28;20026;-60
2022/12/03 00:44:24;;;;;;;27.38;13.98;;;;;;;2.91;77.70;102244.72;5032343;28;20050;-60
2022/12/03 00:46:50;;;;;;;26.90;13.20;;;;;;;2.85;78.26;102239.09;5032598;28;20030;-61
2022/12/03 00:49:15;;;;;;;26.10;14.18;;;;;;;2.79;78.58;102243.03;5032602;28;20148;-61
2022/12/03 00:51:40;;;;;;;27.33;13.23;;;;;;;2.76;78.74;102242.00;5032613;28;20483;-61
2022/12/03 00:54:06;;;;;;;27.40;14.10;;;;;;;2.78;79.30;102236.88;5032542;28;20018;-61
2022/12/03 00:56:31;;;;;;;26.80;14.43;;;;;;;2.79;78.21;102245.66;5032456;28;20099;-60
2022/12/03 00:58:56;;;;;;;29.48;14.05;;;;;;;2.78;79.31;102244.72;5032487;28;20048;-61
2022/12/03 01:01:22;;;;;;;31.48;13.45;;;;;;;2.80;79.14;102237.91;5035332;28;20022;-60
2022/12/03 01:03:47;;;;;;;27.70;13.98;;;;;;;2.83;78.81;102243.31;5036408;28;20539;-61
2022/12/03 01:06:13;;;;;;;26.38;14.25;;;;;;;2.81;78.66;102237.09;5036422;28;20034;-61
2022/12/03 01:08:38;;;;;;;27.20;13.82;;;;;;;2.78;78.34;102236.88;5036397;28;20029;-60
2022/12/03 01:11:36;;;;;;;27.90;13.75;;;;;;;2.78;78.77;102243.81;5036311;28;20376;-60
2022/12/03 01:13:49;;;;;;;28.38;14.02;;;;;;;2.85;78.74;102246.03;5036015;28;20037;-61
2022/12/03 01:16:14;;;;;;;27.80;13.90;;;;;;;2.85;78.87;102235.59;5036379;28;20041;-61
2022/12/03 01:18:39;;;;;;;26.52;13.63;;;;;;;2.86;79.37;102240.88;5036278;28;20383;-61
2022/12/03 01:21:05;;;;;;;25.15;13.48;;;;;;;2.88;78.91;102234.09;5036091;28;20071;-61
2022/12/03 01:23:30;;;;;;;25.98;13.90;;;;;;;2.92;78.62;102228.25;5036326;28;20115;-60
2022/12/03 01:25:55;;;;;;;28.15;13.93;;;;;;;2.94;78.66;102233.56;5036269;28;20029;-61
2022/12/03 01:28:21;;;;;;;28.30;14.50;;;;;;;2.95;78.37;102235.34;5035936;28;20026;-60
2022/12/03 01:33:34;;;;;;;27.20;13.88;;;;;;;2.93;78.64;102244.81;4998382;28;20038;-60
2022/12/03 01:36:00;;;;;;;28.60;13.90;;;;;;;2.91;78.86;102236.91;5035792;28;20040;-60
2022/12/03 01:38:25;;;;;;;32.33;15.23;;;;;;;2.86;78.58;102240.88;5035805;28;20100;-60
2022/12/03 01:40:51;;;;;;;29.70;14.48;;;;;;;2.87;78.64;102239.19;5035656;28;20041;-60
2022/12/03 01:43:16;;;;;;;28.15;14.20;;;;;;;2.89;78.54;102235.88;5035205;28;20053;-61
2022/12/03 01:45:41;;;;;;;30.75;15.85;;;;;;;2.91;78.84;102231.69;5035804;28;20079;-60
2022/12/03 01:48:12;;;;;;;29.10;14.52;;;;;;;2.95;78.27;102227.53;5017948;28;20134;-60
2022/12/03 01:50:37;;;;;;;31.77;14.93;;;;;;;2.94;78.75;102234.47;5035619;28;20037;-60
2022/12/03 01:53:03;;;;;;;27.63;14.18;;;;;;;2.96;78.30;102231.97;5035497;28;20021;-61
2022/12/03 01:55:29;;;;;;;30.38;14.85;;;;;;;2.95;78.63;102227.53;5035650;28;20044;-60
2022/12/03 01:57:57;;;;;;;29.48;15.25;;;;;;;2.94;78.67;102229.22;5035429;28;20030;-61
2022/12/03 02:00:26;;;;;;;28.75;14.30;;;;;;;2.95;79.13;102223.19;5035300;28;20531;-61
2022/12/03 02:02:58;;;;;;;28.30;14.27;;;;;;;3.00;79.09;102237.47;5017742;28;20057;-60
2022/12/03 02:05:31;;;;;;;30.02;14.10;;;;;;;2.97;78.32;102223.31;5035550;28;20025;-60
2022/12/03 02:07:58;;;;;;;27.67;14.30;;;;;;;2.98;78.69;102226.00;5035546;28;20032;-61
2022/12/03 02:10:31;;;;;;;28.33;14.95;;;;;;;2.94;78.61;102234.47;5035250;28;20095;-61
2022/12/03 02:12:59;;;;;;;27.80;14.57;;;;;;;2.94;78.78;102228.34;5034333;28;20407;-61
2022/12/03 02:15:25;;;;;;;30.52;14.88;;;;;;;2.99;79.31;102224.31;5034906;28;20159;-60
2022/12/03 02:17:51;;;;;;;29.38;16.27;;;;;;;2.97;78.75;102220.72;5035011;28;20116;-60
2022/12/03 02:20:17;;;;;;;26.90;14.38;;;;;;;3.00;79.01;102227.03;5035050;28;20017;-60
2022/12/03 02:23:21;;;;;;;29.65;14.95;;;;;;;3.00;79.06;102229.63;5035132;28;20040;-60
2022/12/03 02:25:46;;;;;;;29.27;14.75;;;;;;;3.00;78.16;102221.81;5035175;28;20108;-60
2022/12/03 02:28:12;;;;;;;30.05;15.05;;;;;;;3.03;78.58;102223.69;5034829;28;20433;-60
2022/12/03 02:30:37;;;;;;;30.08;14.50;;;;;;;3.01;78.27;102213.16;5017387;28;20032;-61
2022/12/03 02:33:03;;;;;;;27.90;14.68;;;;;;;3.00;78.67;102213.06;5034758;28;20376;-60
2022/12/03 02:35:33;;;;;;;29.13;15.50;;;;;;;2.96;78.42;102216.28;5034563;28;20034;-60
2022/12/03 02:38:11;;;;;;;29.83;14.63;;;;;;;2.87;79.46;102213.06;5034777;28;20502;-61
2022/12/03 02:40:37;;;;;;;31.45;14.75;;;;;;;2.86;79.16;102213.88;5034827;28;20052;-60
2022/12/03 02:43:03;;;;;;;28.25;14.45;;;;;;;2.86;79.45;102206.06;5034618;28;20398;-60
2022/12/03 02:45:33;;;;;;;27.75;14.25;;;;;;;2.88;79.71;102207.97;5034173;28;20053;-60
2022/12/03 02:48:05;;;;;;;29.42;15.95;;;;;;;2.90;79.34;102206.34;5034719;28;20029;-61
2022/12/03 02:50:34;;;;;;;30.33;15.38;;;;;;;2.91;79.45;102213.41;5034580;28;20053;-60
2022/12/03 02:53:03;;;;;;;30.15;15.00;;;;;;;2.92;78.97;102203.84;5034394;28;20033;-61
2022/12/03 02:55:31;;;;;;;28.63;15.48;;;;;;;2.90;79.34;102203.72;5034236;28;20045;-61
2022/12/03 02:57:57;;;;;;;27.38;14.60;;;;;;;2.94;78.99;102197.91;5034346;28;20541;-60
2022/12/03 03:00:23;;;;;;;31.88;16.33;;;;;;;2.95;78.92;102202.31;5016694;28;20029;-60
2022/12/03 03:02:49;;;;;;;28.80;14.77;;;;;;;2.96;79.52;102201.53;5034274;28;20088;-60
2022/12/03 03:05:19;;;;;;;29.60;15.18;;;;;;;3.03;79.17;102208.03;5034415;28;20033;-60
2022/12/03 03:07:44;;;;;;;30.75;14.98;;;;;;;3.08;78.83;102205.69;5016246;28;20037;-60
2022/12/03 03:10:13;;;;;;;33.33;15.93;;;;;;;3.11;78.65;102203.28;5033993;28;20026;-60
2022/12/03 03:12:39;;;;;;;29.58;15.38;;;;;;;3.09;78.48;102203.22;5016215;28;20017;-60
2022/12/03 03:15:05;;;;;;;28.67;15.38;;;;;;;3.05;78.57;102202.91;5033756;28;20383;-60
2022/12/03 03:17:31;;;;;;;29.77;14.88;;;;;;;3.06;78.92;102195.16;5033824;28;20021;-60
2022/12/03 03:19:56;;;;;;;31.60;16.05;;;;;;;3.10;78.73;102196.28;5033868;28;20024;-60
2022/12/03 03:22:31;;;;;;;29.52;15.63;;;;;;;3.09;78.85;102199.69;5033862;28;20053;-60
2022/12/03 03:24:57;;;;;;;31.65;16.20;;;;;;;3.11;79.28;102196.34;5033688;28;20037;-60
2022/12/03 03:27:22;;;;;;;27.80;15.52;;;;;;;3.09;78.51;102182.31;5033789;28;20029;-60
2022/12/03 03:29:48;;;;;;;28.77;15.57;;;;;;;3.01;78.76;102173.09;5015969;28;20107;-60
2022/12/03 03:32:13;;;;;;;31.10;16.48;;;;;;;3.06;78.68;102182.13;5033658;28;20029;-60
2022/12/03 03:34:38;;;;;;;33.22;16.77;;;;;;;3.06;78.51;102181.22;5015895;28;20022;-60
2022/12/03 03:37:04;;;;;;;29.95;15.70;;;;;;;3.03;78.75;102176.69;5033487;28;20434;-60
2022/12/03 03:39:29;;;;;;;29.65;15.75;;;;;;;3.05;78.76;102182.94;5033523;28;20026;-60
2022/12/03 03:41:55;;;;;;;29.35;15.38;;;;;;;3.06;78.60;102187.34;5033427;28;20124;-61
2022/12/03 03:44:20;;;;;;;30.00;15.10;;;;;;;3.04;78.86;102182.81;5032943;28;20053;-60
2022/12/03 03:46:47;;;;;;;28.48;15.07;;;;;;;2.98;78.99;102175.50;5016137;28;20483;-60
2022/12/03 03:49:13;;;;;;;29.77;15.68;;;;;;;3.00;78.84;102171.31;5033431;28;20076;-60
2022/12/03 03:51:39;;;;;;;27.27;15.00;;;;;;;3.00;79.17;102172.19;5033389;28;20136;-60
2022/12/03 03:54:05;;;;;;;28.38;15.70;;;;;;;3.07;78.76;102175.19;5033587;28;20085;-60
2022/12/03 03:56:32;;;;;;;30.17;16.10;;;;;;;3.08;79.28;102174.38;5033473;28;20021;-60
2022/12/03 03:58:57;;;;;;;30.95;16.13;;;;;;;3.06;78.65;102166.44;5033479;28;20086;-60
2022/12/03 04:01:23;;;;;;;31.17;16.55;;;;;;;3.05;78.57;102177.72;5033343;28;20026;-60
2022/12/03 04:03:49;;;;;;;29.60;15.57;;;;;;;3.07;78.84;102176.06;5033223;28;20029;-60
2022/12/03 04:06:15;;;;;;;28.65;15.27;;;;;;;3.06;78.74;102169.06;5033154;28;20030;-61
2022/12/03 04:08:40;;;;;;;28.40;16.45;;;;;;;3.08;79.08;102163.91;5033193;28;20022;-60
2022/12/03 04:13:50;;;;;;;31.80;15.73;;;;;;;3.13;78.58;102167.75;5033208;28;20086;-60
2022/12/03 04:16:15;;;;;;;26.52;14.57;;;;;;;3.13;79.05;102168.66;5033295;28;20029;-60
2022/12/03 04:18:43;;;;;;;31.88;15.48;;;;;;;3.14;78.67;102175.66;5033003;28;20396;-60
2022/12/03 04:24:02;;;;;;;29.00;14.85;;;;;;;3.08;78.53;102170.03;5033420;28;20036;-60
2022/12/03 04:29:12;;;;;;;27.90;14.38;;;;;;;3.05;79.19;102169.88;5033284;28;20048;-61
2022/12/03 04:37:07;;;;;;;30.00;15.48;;;;;;;3.23;78.69;102171.00;5036833;28;20087;-60
2022/12/03 04:39:32;;;;;;;30.02;15.52;;;;;;;3.26;78.76;102167.69;5019384;28;20438;-60
2022/12/03 04:41:58;;;;;;;26.63;14.13;;;;;;;3.28;79.39;102173.91;5037039;28;20044;-59
2022/12/03 04:44:34;;;;;;;30.30;15.32;;;;;;;3.23;77.91;102170.09;5036539;28;20076;-60
2022/12/03 04:47:00;;;;;;;28.70;15.43;;;;;;;3.18;77.97;102164.59;5036899;28;20029;-60
2022/12/03 04:49:26;;;;;;;29.80;15.50;;;;;;;3.17;78.67;102160.19;5036711;28;20471;-60
2022/12/03 04:51:51;;;;;;;28.17;14.80;;;;;;;3.19;78.72;102162.88;5019324;28;20087;-60
2022/12/03 04:54:17;;;;;;;29.08;15.52;;;;;;;3.16;78.87;102162.69;5036621;28;20060;-60
2022/12/03 04:56:43;;;;;;;31.90;16.05;;;;;;;3.13;78.81;102162.53;5036532;28;20394;-60
2022/12/03 04:59:08;;;;;;;36.10;16.73;;;;;;;3.13;78.73;102158.19;5036578;28;20450;-60
2022/12/03 05:01:34;;;;;;;30.60;15.63;;;;;;;3.08;78.36;102161.31;5036346;28;20033;-59
2022/12/03 05:03:59;;;;;;;33.45;18.35;;;;;;;3.04;78.56;102156.69;5036508;28;20026;-60
2022/12/03 05:06:24;;;;;;;32.53;16.55;;;;;;;3.03;78.76;102150.59;5036375;28;20387;-60
2022/12/03 05:08:50;;;;;;;31.98;16.40;;;;;;;3.06;79.40;102161.22;5036319;28;20029;-60
2022/12/03 05:11:15;;;;;;;30.33;16.55;;;;;;;3.09;78.72;102152.69;5036307;28;20116;-60
2022/12/03 05:13:40;;;;;;;30.05;16.27;;;;;;;3.11;79.28;102149.34;5036129;28;20032;-59
2022/12/03 05:16:06;;;;;;;32.45;16.73;;;;;;;3.14;79.02;102156.47;5036183;28;20368;-60
2022/12/03 05:18:32;;;;;;;29.45;16.13;;;;;;;3.11;78.89;102153.66;5036483;28;20037;-60
2022/12/03 05:20:57;;;;;;;33.85;16.60;;;;;;;3.13;79.12;102150.38;5036390;28;20033;-60
2022/12/03 05:23:23;;;;;;;32.33;16.23;;;;;;;3.11;78.62;102140.63;5036174;28;20414;-59
2022/12/03 05:25:48;;;;;;;29.88;15.75;;;;;;;3.14;79.00;102151.25;5018778;28;20128;-60
2022/12/03 05:28:14;;;;;;;33.08;16.27;;;;;;;3.09;78.69;102150.09;5018401;28;20083;-60
2022/12/03 05:30:39;;;;;;;37.40;17.25;;;;;;;3.08;78.97;102143.94;5018277;28;20043;-59
2022/12/03 05:33:05;;;;;;;32.65;15.73;;;;;;;3.08;79.60;102141.31;5035985;28;20069;-60
2022/12/03 05:35:30;;;;;;;30.55;16.40;;;;;;;3.10;78.97;102146.66;5035850;28;20120;-60
2022/12/03 05:37:56;;;;;;;35.60;18.00;;;;;;;3.00;79.48;102140.88;5035839;28;20057;-60
2022/12/03 05:40:21;;;;;;;30.52;16.10;;;;;;;3.01;79.53;102139.16;5035773;28;20017;-60
2022/12/03 05:42:52;;;;;;;35.45;16.45;;;;;;;3.03;79.35;102137.53;5035780;28;20037;-60
2022/12/03 05:45:24;;;;;;;33.65;17.60;;;;;;;3.00;79.53;102126.91;5035278;28;20049;-59
2022/12/03 05:47:51;;;;;;;31.73;16.38;;;;;;;3.04;79.88;102135.81;5018382;28;20036;-60
2022/12/03 05:50:17;;;;;;;34.88;16.77;;;;;;;3.04;79.66;102133.19;5035882;28;20026;-59
2022/12/03 05:52:43;;;;;;;35.58;17.13;;;;;;;3.01;79.78;102129.59;5035580;28;20061;-60
2022/12/03 05:55:09;;;;;;;35.30;17.42;;;;;;;2.89;79.50;102118.41;5035739;28;20101;-61
2022/12/03 05:57:35;;;;;;;34.63;16.65;;;;;;;2.96;79.88;102127.53;5035517;28;20053;-60
2022/12/03 06:00:00;;;;;;;37.60;17.63;;;;;;;2.93;80.32;102138.66;5035458;28;20068;-60
2022/12/03 06:02:26;;;;;;;33.20;16.95;;;;;;;2.91;80.05;102129.84;5035344;28;20456;-60
2022/12/03 06:04:51;;;;;;;35.42;16.63;;;;;;;2.92;80.65;102134.25;5035372;28;20022;-60
2022/12/03 06:07:16;;;;;;;38.90;18.70;;;;;;;2.92;80.63;102135.97;5035384;28;20037;-59
2022/12/03 06:09:42;;;;;;;34.15;17.55;;;;;;;2.88;80.32;102126.16;5035340;28;20033;-60
2022/12/03 06:12:07;;;;;;;32.85;16.20;;;;;;;2.87;80.91;102127.88;5035407;28;20030;-59
2022/12/03 06:14:34;;;;;;;37.17;18.75;;;;;;;2.87;80.97;102140.91;5017294;28;20057;-60
2022/12/03 06:17:00;;;;;;;34.20;17.40;;;;;;;2.88;80.86;102128.75;5017856;28;20040;-61
2022/12/03 06:19:25;;;;;;;36.05;17.48;;;;;;;2.89;80.67;102128.84;5035045;28;20021;-59
2022/12/03 06:21:51;;;;;;;32.50;16.85;;;;;;;2.89;80.53;102126.22;5035339;28;20109;-60
2022/12/03 06:24:16;;;;;;;35.47;16.90;;;;;;;2.89;80.71;102131.47;5034938;28;20408;-60
2022/12/03 06:26:41;;;;;;;33.00;16.17;;;;;;;2.89;80.85;102117.50;5034909;28;20030;-61
2022/12/03 06:29:07;;;;;;;36.08;17.70;;;;;;;2.93;80.17;102122.09;5035187;28;20107;-60
2022/12/03 06:31:32;;;;;;;37.08;18.35;;;;;;;2.91;80.54;102127.25;5016627;28;20034;-60
2022/12/03 06:33:57;;;;;;;35.30;17.27;;;;;;;2.90;80.57;102128.03;5015292;28;20069;-60
2022/12/03 06:36:24;;;;;;;34.55;17.50;;;;;;;2.87;80.92;102129.53;5015130;28;20026;-60
2022/12/03 06:38:50;;;;;;;40.13;17.48;;;;;;;2.83;80.69;102124.97;5014887;28;20535;-60
2022/12/03 06:41:15;;;;;;;35.58;16.90;;;;;;;2.83;80.50;102127.56;5014965;28;20105;-59
2022/12/03 06:43:41;;;;;;;36.15;16.90;;;;;;;2.91;80.80;102131.53;5014400;28;20156;-60
2022/12/03 06:46:06;;;;;;;38.00;17.13;;;;;;;2.87;80.89;102126.94;5014760;28;20050;-60
2022/12/03 06:48:31;;;;;;;36.60;17.70;;;;;;;2.83;80.86;102128.47;5014762;28;20026;-60
2022/12/03 06:50:57;;;;;;;37.08;18.15;;;;;;;2.80;80.90;102128.28;5014724;28;20487;-60
2022/12/03 06:53:22;;;;;;;38.17;18.42;;;;;;;2.79;81.01;102121.25;5014752;28;20030;-60
2022/12/03 06:55:47;;;;;;;38.65;17.65;;;;;;;2.75;81.04;102120.16;5014526;28;20113;-60
2022/12/03 06:58:13;;;;;;;34.25;16.75;;;;;;;2.74;81.59;102123.59;4996509;28;20030;-60
2022/12/03 07:00:38;;;;;;;37.28;17.15;;;;;;;2.75;81.22;102121.88;5014568;28;20065;-59
2022/12/03 07:03:03;;;;;;;36.42;17.55;;;;;;;2.72;81.37;102119.97;5014473;28;20026;-60
2022/12/03 07:05:29;;;;;;;36.90;17.70;;;;;;;2.70;81.43;102118.97;4996938;28;20033;-59
2022/12/03 07:07:54;;;;;;;33.20;16.85;;;;;;;2.71;80.91;102120.78;5014421;28;20042;-59
2022/12/03 07:10:20;;;;;;;34.58;16.52;;;;;;;2.69;81.11;102129.28;5014390;28;20034;-60
2022/12/03 07:12:46;;;;;;;33.65;16.50;;;;;;;2.66;81.70;102123.91;5014317;28;20451;-60
2022/12/03 07:15:11;;;;;;;34.20;16.15;;;;;;;2.70;81.63;102128.50;5014210;28;20026;-60
2022/12/03 07:17:37;;;;;;;33.40;16.38;;;;;;;2.72;81.04;102121.66;5014155;28;20026;-59
2022/12/03 07:20:05;;;;;;;35.67;16.55;;;;;;;2.81;81.28;102126.56;5014160;28;20030;-60
2022/12/03 07:22:31;;;;;;;36.25;16.38;;;;;;;2.79;80.07;102128.19;5014129;28;20037;-60
2022/12/03 07:24:56;;;;;;;31.52;15.68;;;;;;;2.81;81.31;102124.84;5014127;28;20022;-60
2022/12/03 07:27:22;;;;;;;32.30;16.13;;;;;;;2.79;80.80;102116.03;5013998;28;20034;-60
2022/12/03 07:29:47;;;;;;;30.55;15.60;;;;;;;2.81;80.95;102127.47;5014106;28;20072;-59
2022/12/03 07:32:13;;;;;;;34.50;15.98;;;;;;;2.81;80.31;102117.03;5014081;28;20037;-59
2022/12/03 07:34:38;;;;;;;34.63;17.85;;;;;;;2.79;80.57;102122.97;5013909;28;20084;-62
2022/12/03 07:37:03;;;;;;;32.22;16.30;;;;;;;2.81;80.96;102123.94;5013816;28;20025;-60
2022/12/03 07:39:29;;;;;;;34.95;16.33;;;;;;;2.80;80.46;102123.06;5013856;28;20097;-61
2022/12/03 07:41:54;;;;;;;33.55;15.57;;;;;;;2.85;80.59;102123.34;5013922;28;20116;-59
2022/12/03 07:44:19;;;;;;;33.13;16.20;;;;;;;2.85;80.32;102131.16;5016660;28;20057;-60
2022/12/03 07:46:45;;;;;;;34.30;16.15;;;;;;;2.87;80.47;102122.66;5015862;28;20491;-59
2022/12/03 07:49:13;;;;;;;33.65;15.25;;;;;;;2.87;80.86;102113.88;5033385;28;20032;-59
2022/12/03 07:51:39;;;;;;;33.50;15.30;;;;;;;2.91;80.18;102124.63;5033423;28;20031;-59
2022/12/03 07:54:05;;;;;;;30.48;15.93;;;;;;;2.93;79.45;102125.63;5033300;28;20108;-59
2022/12/03 07:56:30;;;;;;;32.05;15.55;;;;;;;2.92;80.02;102122.94;5033455;28;20029;-59
2022/12/03 07:58:56;;;;;;;29.35;14.93;;;;;;;2.89;80.01;102122.72;5033291;28;20033;-59
2022/12/03 08:01:21;;;;;;;29.35;14.13;;;;;;;2.87;79.32;102124.31;5033224;28;20034;-60
2022/12/03 08:03:47;;;;;;;29.88;14.15;;;;;;;2.88;79.20;102129.66;5033192;28;20026;-59
2022/12/03 08:06:12;;;;;;;30.05;14.45;;;;;;;2.87;79.42;102126.94;5033424;28;20056;-59
2022/12/03 08:08:38;;;;;;;35.45;15.07;;;;;;;2.86;79.44;102130.34;5033088;28;20060;-59
2022/12/03 08:11:03;;;;;;;32.03;14.98;;;;;;;2.86;80.15;102126.03;5032286;28;20461;-59
2022/12/03 08:13:29;;;;;;;32.47;14.73;;;;;;;2.91;79.00;102135.06;5032888;28;20017;-59
2022/12/03 08:15:56;;;;;;;30.98;14.55;;;;;;;2.93;78.80;102133.44;5033210;28;20471;-60
2022/12/03 08:18:21;;;;;;;32.60;14.10;;;;;;;2.94;78.68;102132.63;5032969;28;20108;-60
2022/12/03 08:20:49;;;;;;;30.67;14.95;;;;;;;2.97;79.35;102134.53;5015268;28;20030;-59
2022/12/03 08:23:21;;;;;;;31.60;15.30;;;;;;;2.96;79.02;102135.38;5033230;28;20446;-59
2022/12/03 08:25:47;;;;;;;34.50;15.63;;;;;;;2.98;78.96;102138.94;5033241;28;20053;-59
2022/12/03 08:28:15;;;;;;;33.83;15.07;;;;;;;2.99;79.08;102138.13;5033151;28;20044;-60
2022/12/03 08:30:48;;;;;;;35.40;15.55;;;;;;;3.01;79.67;102134.81;5032973;28;20065;-59
2022/12/03 08:33:27;;;;;;;30.23;14.60;;;;;;;3.05;79.66;102125.47;5032859;28;20033;-59
2022/12/03 08:35:52;;;;;;;30.95;15.50;;;;;;;3.02;79.50;102135.72;5032827;28;20026;-59
2022/12/03 08:38:21;;;;;;;35.30;16.45;;;;;;;3.00;79.61;102134.75;5033032;28;20029;-60
2022/12/03 08:40:50;;;;;;;33.05;15.52;;;;;;;3.01;79.54;102132.22;5032641;28;20474;-59
2022/12/03 08:43:26;;;;;;;38.38;17.40;;;;;;;3.01;79.68;102140.06;5014905;28;20025;-59
2022/12/03 08:45:53;;;;;;;29.58;15.45;;;;;;;3.02;79.77;102135.72;5032385;28;20108;-60
2022/12/03 08:48:25;;;;;;;36.00;17.10;;;;;;;3.06;79.89;102127.28;5032677;28;20025;-59
2022/12/03 08:50:55;;;;;;;37.17;18.27;;;;;;;3.11;79.88;102140.63;5033121;28;20029;-59
2022/12/03 08:53:27;;;;;;;33.47;15.38;;;;;;;3.12;79.51;102132.88;5033098;28;20167;-60
2022/12/03 08:56:00;;;;;;;;;;;;;;;3.15;79.82;102134.78;5033507;28;20033;-59
2022/12/03 08:58:39;;;;;;;33.00;14.40;;;;;;;3.14;79.25;102131.25;5032951;28;19917;-60
2022/12/03 09:01:07;;;;;;;34.75;15.60;;;;;;;3.16;78.78;102129.63;5032788;28;20017;-60
2022/12/03 09:03:32;;;;;;;36.20;15.45;;;;;;;3.12;78.38;102132.88;5015010;28;20440;-60
2022/12/03 09:05:58;;;;;;;32.15;15.43;;;;;;;3.08;78.22;102140.41;5015116;28;20029;-59
2022/12/03 09:08:23;;;;;;;31.77;14.63;;;;;;;3.07;78.22;102142.13;5033158;28;20022;-60
2022/12/03 09:10:48;;;;;;;33.85;15.55;;;;;;;3.02;78.00;102130.50;5032848;28;20132;-60
2022/12/03 09:13:14;;;;;;;34.67;15.90;;;;;;;3.00;77.82;102138.25;5032823;28;20064;-59
2022/12/03 09:15:39;;;;;;;36.42;15.68;;;;;;;3.02;78.24;102138.34;5032778;28;20022;-60
2022/12/03 09:18:05;;;;;;;35.15;15.82;;;;;;;3.05;77.85;102140.25;5015320;28;20478;-59
2022/12/03 09:20:30;;;;;;;35.53;15.65;;;;;;;3.07;77.49;102136.00;5032890;28;20025;-60
2022/12/03 09:22:55;;;;;;;42.22;18.33;;;;;;;3.06;77.49;102134.22;5036115;28;20121;-60
2022/12/03 09:25:21;;;;;;;34.80;16.40;;;;;;;3.02;76.80;102135.72;5036425;28;20122;-60
2022/12/03 09:27:46;;;;;;;37.03;16.45;;;;;;;3.00;77.19;102145.19;5036187;28;20034;-59
2022/12/03 09:30:12;;;;;;;37.70;17.13;;;;;;;2.95;77.71;102143.97;5036200;28;20026;-60
2022/12/03 09:32:37;;;;;;;42.53;18.40;;;;;;;2.90;77.15;102135.88;5036425;28;20518;-60
2022/12/03 09:35:03;;;;;;;41.22;16.63;;;;;;;2.86;77.99;102130.34;5018380;28;20107;-59
2022/12/03 09:37:29;;;;;;;39.45;17.38;;;;;;;2.86;77.68;102141.69;5035858;28;20030;-59
2022/12/03 09:39:54;;;;;;;43.22;19.02;;;;;;;2.88;78.06;102136.59;5036149;28;20039;-59
2022/12/03 09:42:20;;;;;;;41.40;17.55;;;;;;;2.90;78.25;102133.25;5035854;28;20502;-59
2022/12/03 09:44:45;;;;;;;38.15;16.25;;;;;;;2.89;77.95;102134.06;5035705;28;20053;-59
2022/12/03 09:47:11;;;;;;;37.60;18.20;;;;;;;2.82;77.79;102128.34;5035805;28;20440;-59
2022/12/03 09:49:37;;;;;;;40.75;17.00;;;;;;;2.79;78.76;102122.97;5035729;28;20029;-60
2022/12/03 09:52:04;;;;;;;42.10;17.13;;;;;;;2.80;78.65;102123.06;5035452;28;20471;-59
2022/12/03 09:54:31;;;;;;;41.20;17.38;;;;;;;2.78;78.04;102119.44;5035636;28;20107;-61
2022/12/03 09:57:01;;;;;;;38.67;16.52;;;;;;;2.82;78.96;102112.69;5035712;28;20071;-59
2022/12/03 09:59:30;;;;;;;40.08;16.63;;;;;;;2.84;78.45;102113.72;5035436;28;20034;-59
2022/12/03 10:01:56;;;;;;;34.83;16.17;;;;;;;2.77;77.81;102109.81;5035338;28;20060;-59
2022/12/03 10:04:21;;;;;;;32.17;14.90;;;;;;;2.75;77.58;102109.72;5035178;28;20072;-59
2022/12/03 10:06:47;;;;;;;36.30;15.68;;;;;;;2.75;77.76;102108.81;5035172;28;20034;-60
2022/12/03 10:09:16;;;;;;;35.05;13.95;;;;;;;2.75;77.09;102116.66;5035201;28;20179;-59
2022/12/03 10:11:42;;;;;;;33.30;14.15;;;;;;;2.74;76.86;102110.53;5035356;28;20034;-59
2022/12/03 10:14:12;;;;;;;33.38;13.68;;;;;;;2.73;77.54;102106.09;5034995;28;20032;-59
2022/12/03 10:16:39;;;;;;;31.08;13.82;;;;;;;2.69;77.41;102096.28;5035298;28;20022;-60
2022/12/03 10:19:05;;;;;;;32.13;13.60;;;;;;;2.69;77.50;102095.38;5035068;28;20391;-60
2022/12/03 10:21:35;;;;;;;35.67;15.60;;;;;;;2.68;77.50;102093.56;5034928;28;20025;-59
2022/12/03 10:24:28;;;;;;;30.70;13.32;;;;;;;2.67;77.18;102097.00;5035080;28;20124;-59
2022/12/03 10:26:56;;;;;;;31.98;14.05;;;;;;;2.70;77.96;102098.09;5034904;28;20546;-59
2022/12/03 10:29:26;;;;;;;30.13;13.02;;;;;;;2.69;77.29;102092.75;5035063;28;20025;-59
2022/12/03 10:31:58;;;;;;;32.22;13.55;;;;;;;2.66;76.55;102083.06;5035055;28;20017;-59
2022/12/03 10:34:29;;;;;;;29.98;13.20;;;;;;;2.59;76.67;102087.78;5033729;28;20029;-59
2022/12/03 10:37:20;;;;;;;30.05;13.63;;;;;;;2.57;77.07;102087.69;5034572;28;20471;-59
2022/12/03 10:40:09;;;;;;;28.73;12.18;;;;;;;2.53;77.05;102074.34;5034936;28;20447;-59
2022/12/03 10:42:39;;;;;;;26.85;13.05;;;;;;;2.49;76.64;102071.56;5034867;28;20038;-61
2022/12/03 10:45:06;;;;;;;28.20;12.95;;;;;;;2.48;76.75;102068.84;5034369;28;20045;-59
2022/12/03 10:47:31;;;;;;;28.63;12.82;;;;;;;2.48;76.78;102069.75;5034555;28;20048;-59
2022/12/03 10:50:02;;;;;;;26.88;12.38;;;;;;;2.48;76.40;102063.63;5034454;28;20483;-59
2022/12/03 10:52:28;;;;;;;24.55;12.40;;;;;;;2.50;76.38;102062.91;5034467;28;20041;-59
2022/12/03 10:54:54;;;;;;;24.25;11.88;;;;;;;2.51;75.50;102054.28;5034420;28;20026;-59
2022/12/03 10:57:21;;;;;;;24.20;12.23;;;;;;;2.59;75.62;102054.75;5034264;28;20033;-59
2022/12/03 10:59:46;;;;;;;30.92;14.32;;;;;;;2.65;76.64;102042.09;5034310;28;20029;-59
2022/12/03 11:02:21;;;;;;;26.65;12.18;;;;;;;2.73;76.03;102040.84;5034176;28;20079;-60
2022/12/03 11:04:47;;;;;;;27.23;13.43;;;;;;;2.74;76.07;102041.75;5034078;28;20463;-59
2022/12/03 11:07:20;;;;;;;29.67;12.70;;;;;;;2.79;75.72;102042.97;5034336;28;20033;-59
2022/12/03 11:09:48;;;;;;;24.83;12.20;;;;;;;2.80;75.26;102047.34;5034125;28;20117;-59
2022/12/03 11:12:19;;;;;;;26.80;12.00;;;;;;;2.81;75.47;102049.16;5034043;28;20029;-59
2022/12/03 11:17:42;;;;;;;26.00;11.70;;;;;;;2.87;75.99;102031.28;5033846;28;20419;-58
2022/12/03 11:20:19;;;;;;;23.80;12.18;;;;;;;2.86;74.51;102041.59;5034274;28;20032;-59
2022/12/03 11:22:58;;;;;;;24.27;12.10;;;;;;;2.80;73.89;102036.91;5033831;28;20025;-59
2022/12/03 11:25:23;;;;;;;23.45;11.98;;;;;;;2.79;73.69;102029.00;5033768;28;20033;-59
2022/12/03 11:28:11;;;;;;;25.20;12.60;;;;;;;2.79;74.45;102034.22;5033729;28;20100;-59
2022/12/03 11:30:52;;;;;;;23.48;11.63;;;;;;;2.74;74.41;102029.63;5021021;28;20088;-59
2022/12/03 11:33:26;;;;;;;25.35;11.70;;;;;;;2.71;75.55;102028.53;5033886;28;20040;-61
2022/12/03 11:36:04;;;;;;;21.70;12.60;;;;;;;2.69;74.77;102025.81;5033513;28;20468;-59